Time;durP1;ratioP1;P1;durP2;ratioP2;P2;SDS_P1;SDS_P2;PMS_P1;PMS_P2;Temp;Humidity;BMP_temperature;BMP_pressure;BME280_temperature;BME280_humidity;BME280_pressure;Samples;Min_cycle;Max_cycle;Signal;HPM_P1;HPM_P2
2023/12/12 00:01:34;;;;;;;83.23;31.50;;;;;;;;;;5010574;28;20874;-73
2023/12/12 00:03:59;;;;;;;86.83;31.70;;;;;;;;;;5030304;28;20225;-73
2023/12/12 00:06:25;;;;;;;76.43;30.53;;;;;;;;;;5033117;28;20217;-73
2023/12/12 00:08:50;;;;;;;73.90;29.43;;;;;;;;;;5034226;28;20880;-73
2023/12/12 00:11:15;;;;;;;73.67;29.07;;;;;;;;;;5031955;28;20218;-72
2023/12/12 00:13:41;;;;;;;61.77;24.63;;;;;;;;;;5032277;28;20829;-73
2023/12/12 00:16:07;;;;;;;62.00;24.83;;;;;;;;;;5032701;28;20254;-72
2023/12/12 00:18:35;;;;;;;55.30;23.20;;;;;;;;;;5029948;28;20774;-74
2023/12/12 00:21:01;;;;;;;51.10;21.17;;;;;;;;;;5029793;28;20230;-73
2023/12/12 00:23:27;;;;;;;45.10;19.40;;;;;;;;;;5016251;28;20226;-74
2023/12/12 00:25:52;;;;;;;38.23;17.13;;;;;;;;;;5033299;28;20240;-74
2023/12/12 00:28:17;;;;;;;38.03;16.57;;;;;;;;;;5015486;28;20277;-73
2023/12/12 00:30:43;;;;;;;38.90;16.40;;;;;;;;;;5025778;28;20249;-73
2023/12/12 00:33:08;;;;;;;36.73;16.03;;;;;;;;;;5022440;28;20222;-71
2023/12/12 00:35:34;;;;;;;36.20;16.30;;;;;;;;;;5031999;28;20233;-72
2023/12/12 00:37:59;;;;;;;37.90;17.20;;;;;;;;;;5025313;28;20954;-72
2023/12/12 00:40:24;;;;;;;36.40;15.63;;;;;;;;;;5026943;28;20279;-73
2023/12/12 00:42:50;;;;;;;35.80;14.73;;;;;;;;;;5031159;28;20225;-73
2023/12/12 00:45:15;;;;;;;32.40;14.97;;;;;;;;;;5033064;28;20326;-71
2023/12/12 00:47:41;;;;;;;32.07;14.47;;;;;;;;;;5035027;28;20226;-72
2023/12/12 00:50:06;;;;;;;32.17;14.63;;;;;;;;;;5026211;28;20317;-71
2023/12/12 00:52:32;;;;;;;31.77;14.23;;;;;;;;;;5016619;28;20232;-72
2023/12/12 00:54:58;;;;;;;35.77;14.60;;;;;;;;;;5032571;28;20221;-72
2023/12/12 00:57:23;;;;;;;29.23;14.03;;;;;;;;;;5015700;28;20288;-72
2023/12/12 00:59:48;;;;;;;33.27;14.73;;;;;;;;;;5015206;28;20687;-73
2023/12/12 01:02:14;;;;;;;37.47;15.33;;;;;;;;;;5031200;28;20303;-72
2023/12/12 01:04:39;;;;;;;32.43;14.20;;;;;;;;;;5031558;28;20619;-72
2023/12/12 01:07:04;;;;;;;32.90;14.97;;;;;;;;;;5034122;28;20731;-73
2023/12/12 01:09:30;;;;;;;32.57;14.37;;;;;;;;;;5012689;28;20941;-71
2023/12/12 01:11:55;;;;;;;32.80;15.17;;;;;;;;;;5033948;28;20225;-72
2023/12/12 01:14:20;;;;;;;34.60;14.47;;;;;;;;;;5032691;28;20221;-72
2023/12/12 01:16:46;;;;;;;30.37;14.63;;;;;;;;;;5026714;28;20222;-72
2023/12/12 01:19:11;;;;;;;32.53;14.40;;;;;;;;;;5030533;28;20263;-72
2023/12/12 01:21:36;;;;;;;38.00;15.30;;;;;;;;;;5033777;28;20232;-72
2023/12/12 01:24:02;;;;;;;37.07;15.67;;;;;;;;;;5028099;28;20593;-73
2023/12/12 01:26:27;;;;;;;33.97;15.30;;;;;;;;;;5015442;28;20233;-73
2023/12/12 01:28:53;;;;;;;41.00;17.97;;;;;;;;;;5032798;28;20224;-72
2023/12/12 01:31:18;;;;;;;49.90;21.30;;;;;;;;;;5028949;28;20222;-73
2023/12/12 01:33:44;;;;;;;50.67;21.10;;;;;;;;;;5017482;28;20217;-72
2023/12/12 01:36:09;;;;;;;51.63;21.63;;;;;;;;;;5026589;28;20233;-72
2023/12/12 01:38:35;;;;;;;52.07;21.73;;;;;;;;;;5028126;28;20229;-71
2023/12/12 01:41:00;;;;;;;54.60;22.30;;;;;;;;;;5026995;28;20725;-71
2023/12/12 01:43:26;;;;;;;53.87;22.60;;;;;;;;;;5029693;28;20229;-72
2023/12/12 01:45:52;;;;;;;51.23;22.43;;;;;;;;;;5014729;28;20234;-72
2023/12/12 01:48:17;;;;;;;50.93;22.67;;;;;;;;;;5033199;28;20718;-72
2023/12/12 01:50:43;;;;;;;53.93;24.30;;;;;;;;;;5032028;28;20232;-72
2023/12/12 01:53:08;;;;;;;55.73;25.10;;;;;;;;;;5036541;28;20279;-71
2023/12/12 01:55:34;;;;;;;59.13;25.97;;;;;;;;;;5036978;28;20230;-71
2023/12/12 01:58:00;;;;;;;101.53;44.37;;;;;;;;;;5029502;28;20244;-71
2023/12/12 02:00:25;;;;;;;68.20;28.73;;;;;;;;;;5031840;28;20229;-72
2023/12/12 02:02:51;;;;;;;67.57;27.57;;;;;;;;;;5032224;28;20301;-72
2023/12/12 02:05:16;;;;;;;62.43;27.37;;;;;;;;;;5014358;28;20237;-71
2023/12/12 02:07:41;;;;;;;57.63;25.63;;;;;;;;;;5014931;28;20233;-73
2023/12/12 02:10:07;;;;;;;61.27;25.50;;;;;;;;;;5030467;28;20226;-72
2023/12/12 02:12:32;;;;;;;57.47;25.80;;;;;;;;;;5032672;28;20233;-73
2023/12/12 02:14:58;;;;;;;60.13;24.73;;;;;;;;;;5034743;28;20226;-73
2023/12/12 02:17:23;;;;;;;53.60;23.97;;;;;;;;;;5034788;28;20218;-73
2023/12/12 02:19:49;;;;;;;58.20;24.63;;;;;;;;;;5018865;28;20234;-73
2023/12/12 02:22:14;;;;;;;52.13;23.17;;;;;;;;;;5016577;28;20257;-74
2023/12/12 02:24:39;;;;;;;52.97;23.50;;;;;;;;;;5030746;28;20234;-73
2023/12/12 02:27:05;;;;;;;56.90;23.57;;;;;;;;;;5032506;28;20797;-72
2023/12/12 02:29:30;;;;;;;52.13;23.60;;;;;;;;;;5020308;28;20234;-72
2023/12/12 02:31:55;;;;;;;52.10;23.43;;;;;;;;;;5034905;28;20618;-71
2023/12/12 02:34:21;;;;;;;58.33;24.33;;;;;;;;;;5030635;28;20221;-71
2023/12/12 02:36:46;;;;;;;57.90;24.67;;;;;;;;;;5025283;28;20248;-71
2023/12/12 02:39:12;;;;;;;56.87;24.60;;;;;;;;;;5033754;28;20229;-72
2023/12/12 02:41:37;;;;;;;57.37;25.43;;;;;;;;;;5031855;28;20295;-73
2023/12/12 02:44:04;;;;;;;64.33;26.40;;;;;;;;;;5029361;28;20244;-73
2023/12/12 02:46:29;;;;;;;59.93;26.83;;;;;;;;;;5028777;28;20232;-72
2023/12/12 02:48:54;;;;;;;63.67;27.23;;;;;;;;;;5032202;28;20214;-73
2023/12/12 02:51:19;;;;;;;56.63;25.40;;;;;;;;;;5033396;28;20226;-74
2023/12/12 02:53:45;;;;;;;63.23;26.53;;;;;;;;;;5011805;28;20330;-73
2023/12/12 02:56:10;;;;;;;62.90;27.07;;;;;;;;;;5019130;28;20237;-72
2023/12/12 02:58:35;;;;;;;63.93;27.57;;;;;;;;;;5030232;28;20225;-72
2023/12/12 03:01:01;;;;;;;62.77;25.90;;;;;;;;;;5028214;28;20225;-72
2023/12/12 03:03:26;;;;;;;88.67;38.60;;;;;;;;;;5021217;28;20223;-73
2023/12/12 03:05:51;;;;;;;101.07;46.67;;;;;;;;;;5028525;28;20236;-72
2023/12/12 03:08:17;;;;;;;86.53;38.13;;;;;;;;;;5032798;28;20269;-72
2023/12/12 03:10:42;;;;;;;68.57;31.57;;;;;;;;;;5033486;28;20295;-72
2023/12/12 03:13:07;;;;;;;59.33;27.50;;;;;;;;;;5032210;28;20229;-72
2023/12/12 03:15:32;;;;;;;59.57;26.60;;;;;;;;;;5030932;28;20229;-72
2023/12/12 03:17:58;;;;;;;63.07;26.53;;;;;;;;;;5031854;28;20221;-72
2023/12/12 03:20:23;;;;;;;61.97;28.53;;;;;;;;;;5030458;28;20729;-72
2023/12/12 03:22:48;;;;;;;63.40;26.70;;;;;;;;;;5032653;28;20755;-70
2023/12/12 03:25:14;;;;;;;93.60;49.00;;;;;;;;;;5013877;28;20242;-72
2023/12/12 03:27:39;;;;;;;59.20;26.83;;;;;;;;;;5018809;28;20252;-71
2023/12/12 03:30:05;;;;;;;56.43;25.77;;;;;;;;;;5027462;28;20249;-71
2023/12/12 03:32:31;;;;;;;63.00;25.80;;;;;;;;;;5013836;28;20206;-71
2023/12/12 03:34:56;;;;;;;63.50;27.93;;;;;;;;;;5025206;28;20652;-72
2023/12/12 03:37:21;;;;;;;56.67;25.77;;;;;;;;;;5029778;28;20724;-72
2023/12/12 03:39:47;;;;;;;59.70;26.03;;;;;;;;;;5033165;28;20226;-72
2023/12/12 03:42:12;;;;;;;60.90;26.67;;;;;;;;;;5033467;28;20279;-72
2023/12/12 03:44:37;;;;;;;58.53;26.60;;;;;;;;;;5033681;28;20229;-72
2023/12/12 03:47:03;;;;;;;65.87;26.67;;;;;;;;;;5033212;28;20229;-72
2023/12/12 03:49:28;;;;;;;58.13;24.87;;;;;;;;;;5018672;28;20229;-72
2023/12/12 03:51:53;;;;;;;56.90;24.67;;;;;;;;;;5035787;28;20312;-71
2023/12/12 03:54:19;;;;;;;58.93;26.13;;;;;;;;;;5018460;28;20317;-73
2023/12/12 03:56:44;;;;;;;55.80;25.83;;;;;;;;;;5027090;28;20252;-72
2023/12/12 03:59:10;;;;;;;54.97;25.97;;;;;;;;;;5032017;28;20214;-72
2023/12/12 04:01:35;;;;;;;55.37;24.87;;;;;;;;;;5031930;28;20245;-72
2023/12/12 04:04:00;;;;;;;53.17;24.17;;;;;;;;;;5016626;28;20275;-72
2023/12/12 04:06:26;;;;;;;54.43;23.47;;;;;;;;;;5029408;28;20234;-72
2023/12/12 04:08:51;;;;;;;57.20;23.77;;;;;;;;;;5033736;28;20283;-72
2023/12/12 04:11:16;;;;;;;50.60;22.40;;;;;;;;;;5032486;28;20282;-71
2023/12/12 04:13:42;;;;;;;57.60;23.47;;;;;;;;;;5014507;28;21336;-72
2023/12/12 04:16:07;;;;;;;54.13;22.70;;;;;;;;;;5015676;28;20257;-72
2023/12/12 04:18:32;;;;;;;51.57;22.53;;;;;;;;;;5039002;28;20711;-72
2023/12/12 04:20:58;;;;;;;49.60;22.10;;;;;;;;;;5030924;28;20236;-72
2023/12/12 04:23:23;;;;;;;55.03;23.63;;;;;;;;;;5033586;28;20308;-74
2023/12/12 04:25:48;;;;;;;57.50;25.07;;;;;;;;;;5027436;28;20230;-71
2023/12/12 04:28:14;;;;;;;53.03;23.33;;;;;;;;;;5032381;28;20916;-73
2023/12/12 04:30:39;;;;;;;59.10;23.20;;;;;;;;;;5032865;28;20249;-73
2023/12/12 04:33:04;;;;;;;53.67;22.63;;;;;;;;;;5031428;28;20253;-72
2023/12/12 04:35:30;;;;;;;50.37;22.70;;;;;;;;;;5027622;28;20249;-72
2023/12/12 04:37:55;;;;;;;51.03;22.33;;;;;;;;;;5030867;28;20661;-74
2023/12/12 04:40:20;;;;;;;52.57;23.17;;;;;;;;;;5016219;28;20627;-72
2023/12/12 04:42:46;;;;;;;49.70;21.83;;;;;;;;;;5031488;28;20795;-72
2023/12/12 04:45:11;;;;;;;48.73;21.97;;;;;;;;;;5013661;28;20233;-72
2023/12/12 04:47:36;;;;;;;52.17;21.83;;;;;;;;;;5027615;28;20245;-72
2023/12/12 04:50:02;;;;;;;48.03;21.87;;;;;;;;;;5029101;28;20229;-71
2023/12/12 04:52:27;;;;;;;52.70;22.00;;;;;;;;;;5028456;28;20260;-72
2023/12/12 04:54:53;;;;;;;48.77;22.23;;;;;;;;;;5034083;28;20221;-72
2023/12/12 04:57:19;;;;;;;51.87;22.60;;;;;;;;;;5037852;28;20261;-73
2023/12/12 04:59:44;;;;;;;53.30;23.63;;;;;;;;;;5031565;28;20224;-72
2023/12/12 05:02:10;;;;;;;55.83;22.23;;;;;;;;;;5031790;28;20284;-72
2023/12/12 05:04:37;;;;;;;53.67;22.07;;;;;;;;;;5031597;28;20322;-72
2023/12/12 05:07:02;;;;;;;51.90;21.77;;;;;;;;;;5011363;28;20343;-71
2023/12/12 05:09:28;;;;;;;51.47;22.40;;;;;;;;;;5012973;28;20263;-70
2023/12/12 05:11:53;;;;;;;48.57;21.67;;;;;;;;;;5039796;28;20300;-72
2023/12/12 05:14:18;;;;;;;47.07;21.57;;;;;;;;;;5032418;28;20221;-72
2023/12/12 05:16:44;;;;;;;49.93;21.53;;;;;;;;;;5028430;28;20782;-70
2023/12/12 05:19:09;;;;;;;47.10;21.87;;;;;;;;;;5023654;28;20831;-71
2023/12/12 05:21:35;;;;;;;53.80;24.57;;;;;;;;;;5030739;28;20707;-71
2023/12/12 05:24:00;;;;;;;67.10;28.37;;;;;;;;;;5031467;28;20580;-72
2023/12/12 05:26:25;;;;;;;70.37;28.07;;;;;;;;;;5033034;28;20226;-72
2023/12/12 05:28:51;;;;;;;60.03;25.47;;;;;;;;;;5032623;28;20292;-72
2023/12/12 05:31:16;;;;;;;56.50;24.63;;;;;;;;;;5035250;28;20677;-72
2023/12/12 05:33:41;;;;;;;57.50;24.87;;;;;;;;;;5035703;28;20218;-72
2023/12/12 05:36:10;;;;;;;57.77;26.13;;;;;;;;;;5033065;28;20749;-72
2023/12/12 05:38:35;;;;;;;56.13;25.23;;;;;;;;;;5019317;28;20218;-72
2023/12/12 05:41:00;;;;;;;56.40;25.00;;;;;;;;;;5020433;28;20970;-72
2023/12/12 05:43:26;;;;;;;58.47;24.03;;;;;;;;;;5037861;28;20222;-72
2023/12/12 05:45:51;;;;;;;53.53;23.13;;;;;;;;;;5030890;28;20311;-71
2023/12/12 05:48:17;;;;;;;52.30;22.53;;;;;;;;;;5030275;28;20223;-71
2023/12/12 05:50:42;;;;;;;49.53;22.43;;;;;;;;;;5030432;28;20229;-71
2023/12/12 05:53:08;;;;;;;59.57;25.27;;;;;;;;;;5048819;28;20226;-71
2023/12/12 05:55:33;;;;;;;53.73;24.13;;;;;;;;;;5032165;28;20723;-71
2023/12/12 05:58:02;;;;;;;55.10;24.77;;;;;;;;;;5030599;28;20303;-72
2023/12/12 06:00:27;;;;;;;59.23;24.83;;;;;;;;;;5033440;28;20635;-70
2023/12/12 06:02:54;;;;;;;55.00;22.67;;;;;;;;;;5006817;28;20248;-71
2023/12/12 06:05:19;;;;;;;53.73;21.87;;;;;;;;;;5018277;28;20241;-72
2023/12/12 06:07:44;;;;;;;53.77;23.30;;;;;;;;;;5031193;28;20218;-71
2023/12/12 06:10:10;;;;;;;56.23;22.87;;;;;;;;;;5030102;28;20591;-71
2023/12/12 06:12:35;;;;;;;61.03;25.37;;;;;;;;;;5033532;28;20230;-72
2023/12/12 06:15:01;;;;;;;62.43;26.43;;;;;;;;;;5020724;28;20241;-72
2023/12/12 06:17:26;;;;;;;60.47;26.00;;;;;;;;;;5018147;28;20226;-70
2023/12/12 06:19:52;;;;;;;57.23;24.93;;;;;;;;;;5019838;28;20331;-74
2023/12/12 06:22:17;;;;;;;53.47;23.53;;;;;;;;;;5017054;28;20215;-72
2023/12/12 06:24:42;;;;;;;54.73;23.33;;;;;;;;;;5025809;28;20265;-72
2023/12/12 06:27:08;;;;;;;54.53;23.20;;;;;;;;;;5031536;28;20234;-72
2023/12/12 06:29:33;;;;;;;49.73;21.70;;;;;;;;;;5032699;28;20256;-71
2023/12/12 06:31:59;;;;;;;47.63;20.87;;;;;;;;;;5026763;28;20436;-71
2023/12/12 06:34:24;;;;;;;44.83;21.00;;;;;;;;;;5014349;28;20304;-71
2023/12/12 06:36:49;;;;;;;48.50;20.83;;;;;;;;;;5026107;28;20242;-71
2023/12/12 06:39:15;;;;;;;47.53;20.80;;;;;;;;;;5029047;28;20225;-72
2023/12/12 06:41:40;;;;;;;46.07;21.00;;;;;;;;;;5028969;28;20612;-70
2023/12/12 06:44:06;;;;;;;57.07;21.57;;;;;;;;;;5027185;28;20256;-72
2023/12/12 06:46:31;;;;;;;47.87;21.50;;;;;;;;;;5032339;28;20845;-71
2023/12/12 06:48:57;;;;;;;50.70;21.57;;;;;;;;;;5031786;28;20257;-73
2023/12/12 06:51:22;;;;;;;47.10;21.47;;;;;;;;;;5018547;28;20613;-72
2023/12/12 06:53:48;;;;;;;48.70;20.63;;;;;;;;;;5017432;28;20233;-73
2023/12/12 06:56:13;;;;;;;46.07;20.30;;;;;;;;;;5018567;28;20222;-72
2023/12/12 06:58:39;;;;;;;45.53;20.00;;;;;;;;;;5035209;28;20229;-74
2023/12/12 07:01:04;;;;;;;42.13;19.17;;;;;;;;;;5036489;28;20238;-74
2023/12/12 07:03:29;;;;;;;43.87;18.93;;;;;;;;;;5017170;28;20655;-72
2023/12/12 07:05:56;;;;;;;44.40;18.67;;;;;;;;;;5017457;28;20252;-72
2023/12/12 07:08:21;;;;;;;43.97;19.80;;;;;;;;;;5026682;28;20655;-72
2023/12/12 07:10:46;;;;;;;40.70;18.70;;;;;;;;;;5030493;28;20214;-73
2023/12/12 07:13:12;;;;;;;39.30;17.93;;;;;;;;;;5032043;28;20256;-72
2023/12/12 07:15:37;;;;;;;40.50;17.07;;;;;;;;;;5035546;28;20339;-72
2023/12/12 07:18:03;;;;;;;35.70;15.77;;;;;;;;;;5013172;28;20218;-72
2023/12/12 07:20:28;;;;;;;36.40;15.07;;;;;;;;;;5035673;28;20245;-72
2023/12/12 07:22:56;;;;;;;36.77;15.73;;;;;;;;;;5027762;28;20218;-72
2023/12/12 07:25:22;;;;;;;38.33;15.27;;;;;;;;;;5038136;28;20242;-72
2023/12/12 07:27:47;;;;;;;33.47;15.17;;;;;;;;;;5032537;28;20217;-73
2023/12/12 07:30:13;;;;;;;40.23;15.17;;;;;;;;;;5029512;28;20313;-73
2023/12/12 07:32:38;;;;;;;31.00;13.80;;;;;;;;;;5030429;28;20214;-73
2023/12/12 07:35:04;;;;;;;31.23;14.23;;;;;;;;;;5017808;28;20454;-73
2023/12/12 07:37:29;;;;;;;35.07;13.60;;;;;;;;;;5032723;28;20229;-72
2023/12/12 07:39:54;;;;;;;31.80;13.87;;;;;;;;;;5033995;28;20275;-72
2023/12/12 07:42:20;;;;;;;31.97;14.17;;;;;;;;;;5021373;28;20234;-73
2023/12/12 07:44:45;;;;;;;34.10;15.03;;;;;;;;;;5029838;28;20249;-72
2023/12/12 07:47:10;;;;;;;38.17;16.47;;;;;;;;;;5020036;28;20222;-72
2023/12/12 07:49:36;;;;;;;45.33;17.90;;;;;;;;;;5035856;28;20244;-72
2023/12/12 07:52:01;;;;;;;48.10;18.90;;;;;;;;;;5034594;28;20225;-72
2023/12/12 07:54:26;;;;;;;44.97;17.87;;;;;;;;;;5016807;28;20221;-72
2023/12/12 07:56:53;;;;;;;41.00;17.60;;;;;;;;;;5035436;28;20357;-73
2023/12/12 07:59:18;;;;;;;45.43;17.30;;;;;;;;;;5035822;28;20225;-73
2023/12/12 08:01:44;;;;;;;42.87;17.87;;;;;;;;;;5009551;28;20233;-72
2023/12/12 08:04:09;;;;;;;44.00;17.63;;;;;;;;;;5028422;28;20745;-72
2023/12/12 08:06:34;;;;;;;40.70;17.27;;;;;;;;;;5028168;28;20723;-72
2023/12/12 08:08:59;;;;;;;34.87;16.63;;;;;;;;;;5028148;28;20217;-73
2023/12/12 08:11:27;;;;;;;42.60;18.97;;;;;;;;;;5032255;28;20218;-73
2023/12/12 08:13:53;;;;;;;40.67;17.60;;;;;;;;;;5030702;28;20305;-72
2023/12/12 08:16:18;;;;;;;53.13;25.23;;;;;;;;;;5017927;28;20226;-72
2023/12/12 08:18:43;;;;;;;54.27;22.93;;;;;;;;;;5014339;28;20229;-72
2023/12/12 08:30:39;;;;;;;46.70;15.57;;;;;;;;;;5031051;28;20620;-72
2023/12/12 08:33:04;;;;;;;36.90;13.80;;;;;;;;;;5032812;28;20225;-72
2023/12/12 08:35:29;;;;;;;33.13;10.20;;;;;;;;;;5030352;28;20232;-71
2023/12/12 08:37:55;;;;;;;24.30;10.20;;;;;;;;;;5023945;28;20214;-71
2023/12/12 08:40:20;;;;;;;29.13;9.60;;;;;;;;;;5017968;28;20244;-72
2023/12/12 08:42:46;;;;;;;22.13;8.40;;;;;;;;;;5035975;28;20222;-73
2023/12/12 08:45:11;;;;;;;21.13;9.03;;;;;;;;;;5039381;28;20244;-72
2023/12/12 08:47:36;;;;;;;23.93;9.00;;;;;;;;;;5031813;28;20221;-72
2023/12/12 08:50:03;;;;;;;20.53;8.07;;;;;;;;;;5029425;28;20230;-73
2023/12/12 08:52:29;;;;;;;23.37;7.83;;;;;;;;;;5029989;28;20249;-73
2023/12/12 08:54:56;;;;;;;21.53;8.07;;;;;;;;;;5037380;28;20236;-72
2023/12/12 08:57:21;;;;;;;23.73;8.60;;;;;;;;;;5031141;28;20225;-73
2023/12/12 08:59:47;;;;;;;31.03;13.20;;;;;;;;;;5028329;28;20229;-74
2023/12/12 09:02:12;;;;;;;38.03;14.13;;;;;;;;;;5033551;28;20279;-72
2023/12/12 09:04:37;;;;;;;30.10;13.57;;;;;;;;;;5028874;28;20222;-73
2023/12/12 09:07:03;;;;;;;32.53;13.80;;;;;;;;;;5033096;28;20285;-72
2023/12/12 09:09:31;;;;;;;82.20;32.50;;;;;;;;;;5014383;28;20225;-73
2023/12/12 09:11:57;;;;;;;45.97;19.10;;;;;;;;;;5033205;28;20730;-71
2023/12/12 09:14:22;;;;;;;35.03;14.67;;;;;;;;;;5028020;28;20748;-72
2023/12/12 09:16:47;;;;;;;40.30;17.87;;;;;;;;;;5030903;28;20253;-73
2023/12/12 09:19:15;;;;;;;19.50;6.13;;;;;;;;;;5029818;28;20213;-74
2023/12/12 09:21:41;;;;;;;17.30;5.50;;;;;;;;;;5034065;28;20707;-73
2023/12/12 09:24:07;;;;;;;15.80;5.10;;;;;;;;;;5031761;28;20222;-73
2023/12/12 09:26:32;;;;;;;11.70;5.10;;;;;;;;;;5029658;28;20227;-73
2023/12/12 09:28:57;;;;;;;18.03;5.50;;;;;;;;;;5031649;28;20250;-72
2023/12/12 09:31:26;;;;;;;14.57;4.93;;;;;;;;;;5011933;28;20221;-72
2023/12/12 09:33:51;;;;;;;14.17;5.30;;;;;;;;;;5040987;28;20715;-72
2023/12/12 09:36:17;;;;;;;12.00;5.20;;;;;;;;;;5032722;28;20227;-72
2023/12/12 09:38:42;;;;;;;13.37;5.40;;;;;;;;;;5015793;28;20347;-73
2023/12/12 09:41:09;;;;;;;18.50;5.50;;;;;;;;;;5033352;28;20244;-74
2023/12/12 09:43:34;;;;;;;13.53;5.10;;;;;;;;;;5015315;28;20218;-73
2023/12/12 09:46:00;;;;;;;14.63;5.50;;;;;;;;;;5026853;28;20411;-73
2023/12/12 09:48:25;;;;;;;15.13;5.00;;;;;;;;;;5027869;28;20314;-74
2023/12/12 09:50:50;;;;;;;13.70;4.60;;;;;;;;;;5028479;28;20295;-74
2023/12/12 09:53:16;;;;;;;15.47;4.30;;;;;;;;;;5031884;28;20221;-72
2023/12/12 09:55:42;;;;;;;11.20;4.20;;;;;;;;;;5029927;28;20224;-73
2023/12/12 09:58:07;;;;;;;13.23;4.40;;;;;;;;;;5029538;28;20729;-73
2023/12/12 10:00:32;;;;;;;13.63;4.40;;;;;;;;;;5031245;28;20218;-72
2023/12/12 10:02:59;;;;;;;11.57;4.60;;;;;;;;;;5025972;28;20222;-72
2023/12/12 10:05:28;;;;;;;12.77;5.23;;;;;;;;;;5011354;28;21725;-73
2023/12/12 10:07:53;;;;;;;16.33;5.80;;;;;;;;;;5038013;28;20275;-73
2023/12/12 10:10:19;;;;;;;17.43;6.07;;;;;;;;;;5031056;28;20231;-75
2023/12/12 10:12:47;;;;;;;14.00;5.47;;;;;;;;;;5036218;28;20241;-73
2023/12/12 10:15:25;;;;;;;16.97;5.23;;;;;;;;;;5017786;28;20222;-74
2023/12/12 10:18:05;;;;;;;11.60;4.97;;;;;;;;;;5031166;28;20221;-74
2023/12/12 10:20:30;;;;;;;11.73;4.70;;;;;;;;;;5041223;28;20715;-74
2023/12/12 10:23:00;;;;;;;12.63;4.53;;;;;;;;;;5034245;28;20225;-73
2023/12/12 10:25:26;;;;;;;14.17;4.63;;;;;;;;;;5031245;28;20296;-74
2023/12/12 10:27:52;;;;;;;15.17;4.60;;;;;;;;;;5034179;28;20279;-74
2023/12/12 10:30:18;;;;;;;11.57;4.70;;;;;;;;;;5032054;28;20275;-73
2023/12/12 10:32:44;;;;;;;15.27;4.77;;;;;;;;;;5032280;28;20225;-73
2023/12/12 10:35:09;;;;;;;13.87;4.83;;;;;;;;;;5034033;28;20221;-75
2023/12/12 10:37:35;;;;;;;12.87;4.53;;;;;;;;;;5033178;28;20214;-75
2023/12/12 10:40:12;;;;;;;11.97;4.63;;;;;;;;;;5029405;28;20234;-74
2023/12/12 10:42:38;;;;;;;11.17;4.20;;;;;;;;;;5041363;28;20222;-74
2023/12/12 10:45:04;;;;;;;16.60;5.37;;;;;;;;;;5032006;28;20242;-73
2023/12/12 10:47:29;;;;;;;15.13;6.07;;;;;;;;;;5014228;28;20240;-74
2023/12/12 10:49:54;;;;;;;15.47;7.13;;;;;;;;;;5036005;28;20792;-73
2023/12/12 10:52:20;;;;;;;12.83;6.60;;;;;;;;;;5032575;28;20272;-73
2023/12/12 10:54:45;;;;;;;13.70;6.30;;;;;;;;;;5031606;28;20240;-73
2023/12/12 10:57:11;;;;;;;14.87;5.93;;;;;;;;;;5030051;28;20277;-74
2023/12/12 10:59:36;;;;;;;13.63;5.57;;;;;;;;;;5029715;28;20233;-73
2023/12/12 11:02:02;;;;;;;11.13;4.60;;;;;;;;;;5029863;28;20230;-72
2023/12/12 11:04:27;;;;;;;11.97;4.70;;;;;;;;;;5032780;28;20237;-73
2023/12/12 11:06:53;;;;;;;14.60;4.83;;;;;;;;;;5030724;28;20226;-71
2023/12/12 11:09:21;;;;;;;15.07;4.67;;;;;;;;;;5033144;28;20229;-73
2023/12/12 11:11:47;;;;;;;10.30;4.60;;;;;;;;;;5040993;28;20226;-73
2023/12/12 11:14:12;;;;;;;17.93;5.20;;;;;;;;;;5031108;28;20228;-73
2023/12/12 11:16:37;;;;;;;16.03;5.27;;;;;;;;;;5018414;28;20226;-73
2023/12/12 11:19:03;;;;;;;11.83;4.83;;;;;;;;;;5034085;28;20248;-74
2023/12/12 11:21:47;;;;;;;15.27;4.93;;;;;;;;;;5018450;28;20225;-74
2023/12/12 11:24:13;;;;;;;19.63;5.27;;;;;;;;;;5027308;28;20222;-73
2023/12/12 11:26:38;;;;;;;11.33;4.80;;;;;;;;;;5024096;28;20307;-73
2023/12/12 11:29:07;;;;;;;10.00;4.53;;;;;;;;;;5030864;28;20827;-73
2023/12/12 11:31:35;;;;;;;11.57;4.67;;;;;;;;;;5039323;28;20248;-74
2023/12/12 11:34:10;;;;;;;8.70;4.00;;;;;;;;;;5014124;28;20657;-73
2023/12/12 11:36:51;;;;;;;11.83;4.23;;;;;;;;;;5019472;28;20994;-74
2023/12/12 11:39:23;;;;;;;6.90;3.90;;;;;;;;;;5031990;28;21064;-73
2023/12/12 11:41:50;;;;;;;8.10;3.67;;;;;;;;;;5041148;28;20210;-73
2023/12/12 11:44:17;;;;;;;9.47;3.90;;;;;;;;;;5024492;28;20253;-72
2023/12/12 11:46:42;;;;;;;6.93;3.57;;;;;;;;;;5029922;28;20234;-71
2023/12/12 11:49:19;;;;;;;7.57;3.63;;;;;;;;;;5033175;28;20229;-73
2023/12/12 11:51:46;;;;;;;7.87;4.00;;;;;;;;;;5017570;28;20247;-72
2023/12/12 11:54:17;;;;;;;8.80;4.10;;;;;;;;;;5022567;28;20687;-73
2023/12/12 11:56:42;;;;;;;10.17;4.00;;;;;;;;;;5032547;28;20237;-73
2023/12/12 11:59:07;;;;;;;10.17;4.00;;;;;;;;;;5028842;28;20708;-73
2023/12/12 12:01:33;;;;;;;10.60;4.40;;;;;;;;;;5033071;28;20597;-72
2023/12/12 12:03:58;;;;;;;7.57;4.20;;;;;;;;;;5029878;28;20282;-72
2023/12/12 12:06:24;;;;;;;10.47;4.60;;;;;;;;;;5034151;28;20241;-73
2023/12/12 12:08:50;;;;;;;9.80;4.83;;;;;;;;;;5015563;28;20226;-72
2023/12/12 12:11:15;;;;;;;7.17;3.90;;;;;;;;;;5014189;28;21218;-73
2023/12/12 12:13:41;;;;;;;5.97;3.60;;;;;;;;;;5029354;28;20209;-72
2023/12/12 12:16:07;;;;;;;7.60;3.80;;;;;;;;;;5015620;28;20234;-72
2023/12/12 12:18:33;;;;;;;6.73;3.60;;;;;;;;;;5013144;28;20617;-73
2023/12/12 12:20:58;;;;;;;7.87;3.83;;;;;;;;;;5030833;28;20222;-72
2023/12/12 12:23:23;;;;;;;9.00;4.47;;;;;;;;;;5031187;28;20222;-73
2023/12/12 12:25:49;;;;;;;8.67;4.13;;;;;;;;;;5022691;28;20240;-73
2023/12/12 12:28:14;;;;;;;9.53;4.50;;;;;;;;;;5029331;28;20666;-74
2023/12/12 12:30:46;;;;;;;10.90;5.13;;;;;;;;;;5018392;28;20360;-73
2023/12/12 12:33:11;;;;;;;7.97;4.70;;;;;;;;;;5016672;28;20304;-73
2023/12/12 12:35:37;;;;;;;8.73;4.20;;;;;;;;;;5040690;28;20233;-74
2023/12/12 12:38:22;;;;;;;11.17;4.90;;;;;;;;;;5031406;28;20716;-73
2023/12/12 12:40:47;;;;;;;10.57;4.67;;;;;;;;;;5018904;28;20236;-73
2023/12/12 12:43:15;;;;;;;8.23;4.40;;;;;;;;;;5034352;28;20222;-73
2023/12/12 12:45:41;;;;;;;9.67;4.73;;;;;;;;;;5038656;28;20238;-74
2023/12/12 12:48:06;;;;;;;12.90;4.63;;;;;;;;;;5029654;28;20288;-74
2023/12/12 12:50:31;;;;;;;9.87;4.40;;;;;;;;;;5029878;28;20221;-72
2023/12/12 12:52:58;;;;;;;10.90;4.90;;;;;;;;;;5036372;28;20270;-74
2023/12/12 12:55:24;;;;;;;8.50;4.23;;;;;;;;;;5029868;28;20332;-74
2023/12/12 12:57:49;;;;;;;8.80;4.43;;;;;;;;;;5027779;28;20280;-74
2023/12/12 13:00:17;;;;;;;8.70;4.23;;;;;;;;;;5027694;28;20278;-73
2023/12/12 13:02:42;;;;;;;8.67;4.20;;;;;;;;;;5039136;28;20968;-74
2023/12/12 13:05:08;;;;;;;6.13;3.83;;;;;;;;;;5014809;28;20234;-73
2023/12/12 13:07:33;;;;;;;5.77;3.83;;;;;;;;;;5015521;28;21275;-73
2023/12/12 13:10:00;;;;;;;9.10;4.53;;;;;;;;;;5029393;28;20312;-72
2023/12/12 13:12:26;;;;;;;10.27;4.30;;;;;;;;;;5039602;28;20229;-73
2023/12/12 13:14:53;;;;;;;8.93;4.20;;;;;;;;;;5030364;28;20246;-73
2023/12/12 13:17:18;;;;;;;9.33;4.17;;;;;;;;;;5030142;28;20221;-72
2023/12/12 13:19:44;;;;;;;12.27;4.63;;;;;;;;;;5017675;28;20226;-73
2023/12/12 13:22:09;;;;;;;11.83;5.10;;;;;;;;;;5037841;28;20225;-73
2023/12/12 13:24:34;;;;;;;8.93;4.33;;;;;;;;;;5037787;28;20279;-74
2023/12/12 13:27:00;;;;;;;10.13;4.00;;;;;;;;;;5029341;28;20279;-73
2023/12/12 13:29:25;;;;;;;8.27;4.00;;;;;;;;;;5039296;28;20236;-73
2023/12/12 13:31:50;;;;;;;9.93;4.33;;;;;;;;;;5031080;28;21083;-73
2023/12/12 13:34:16;;;;;;;11.23;4.10;;;;;;;;;;5025306;28;20229;-73
2023/12/12 13:36:43;;;;;;;10.23;4.50;;;;;;;;;;5028062;28;20279;-73
2023/12/12 13:39:12;;;;;;;11.07;4.10;;;;;;;;;;5016064;28;20222;-73
2023/12/12 13:41:38;;;;;;;9.50;4.37;;;;;;;;;;5031974;28;20224;-72
2023/12/12 13:44:04;;;;;;;10.30;4.53;;;;;;;;;;5029724;28;20253;-73
2023/12/12 13:46:29;;;;;;;9.77;4.53;;;;;;;;;;5027454;28;20258;-73
2023/12/12 13:48:55;;;;;;;10.80;4.80;;;;;;;;;;5033151;28;20218;-73
2023/12/12 13:51:21;;;;;;;13.13;4.63;;;;;;;;;;5032224;28;20712;-73
2023/12/12 13:53:46;;;;;;;10.33;4.57;;;;;;;;;;5032625;28;20311;-72
2023/12/12 13:56:12;;;;;;;10.47;4.80;;;;;;;;;;5033105;28;20218;-73
2023/12/12 13:58:37;;;;;;;13.37;5.33;;;;;;;;;;5033874;28;20218;-73
2023/12/12 14:01:02;;;;;;;9.70;5.00;;;;;;;;;;5033638;28;20236;-72
2023/12/12 14:03:28;;;;;;;19.07;5.90;;;;;;;;;;5042831;28;20252;-71
2023/12/12 14:05:53;;;;;;;12.20;5.27;;;;;;;;;;5030619;28;20248;-73
2023/12/12 14:08:18;;;;;;;12.10;5.43;;;;;;;;;;5038044;28;20227;-72
2023/12/12 14:10:44;;;;;;;13.93;5.70;;;;;;;;;;5035659;28;20230;-73
2023/12/12 14:13:09;;;;;;;13.63;5.97;;;;;;;;;;5035942;28;20218;-73
2023/12/12 14:15:35;;;;;;;17.73;6.70;;;;;;;;;;5034142;28;20957;-72
2023/12/12 14:18:02;;;;;;;14.17;6.07;;;;;;;;;;5018781;28;20226;-73
2023/12/12 14:20:27;;;;;;;19.40;8.80;;;;;;;;;;5032193;28;20243;-73
2023/12/12 14:22:53;;;;;;;16.87;6.93;;;;;;;;;;5034405;28;20719;-73
2023/12/12 14:25:19;;;;;;;15.27;7.10;;;;;;;;;;5031135;28;20383;-73